Terminal Aerodrome Forecast
Issued by NWS Grand Forks, ND

Home | Current Version | Previous Version | Graphics & Text | Print | Product List | Glossary On
Versions: 1 2 3 4 5 6 7 8 9 10 11 12 13 14 15 16 17 18 19
000
FTUS43 KFGF 291548 AAC
TAFGFK
TAF AMD
KGFK 291548Z 2916/3012 33010KT P6SM OVC250
     FM291800 34014G20KT P6SM OVC250
     FM300000 35007KT P6SM SKC=

USA.gov is the U.S. government's official web portal to all federal, state and local government web resources and services.